sensor_id;sensor_type;location;lat;lon;timestamp;P1;durP1;ratioP1;P2;durP2;ratioP2
28844;SDS011;15976;47.938;7.758;2023-03-21T00:01:48;2.28;;;1.60;;
28844;SDS011;15976;47.938;7.758;2023-03-21T00:04:19;1.42;;;1.33;;
28844;SDS011;15976;47.938;7.758;2023-03-21T00:06:47;1.70;;;1.48;;
28844;SDS011;15976;47.938;7.758;2023-03-21T00:09:14;1.80;;;1.45;;
28844;SDS011;15976;47.938;7.758;2023-03-21T00:11:42;2.15;;;1.50;;
28844;SDS011;15976;47.938;7.758;2023-03-21T00:14:09;2.03;;;1.40;;
28844;SDS011;15976;47.938;7.758;2023-03-21T00:16:40;2.42;;;1.50;;
28844;SDS011;15976;47.938;7.758;2023-03-21T00:19:11;2.10;;;1.40;;
28844;SDS011;15976;47.938;7.758;2023-03-21T00:21:39;1.83;;;1.48;;
28844;SDS011;15976;47.938;7.758;2023-03-21T00:24:28;2.63;;;1.50;;
28844;SDS011;15976;47.938;7.758;2023-03-21T00:26:55;1.90;;;1.27;;
28844;SDS011;15976;47.938;7.758;2023-03-21T00:29:41;1.40;;;1.30;;
28844;SDS011;15976;47.938;7.758;2023-03-21T00:32:08;1.77;;;1.55;;
28844;SDS011;15976;47.938;7.758;2023-03-21T00:34:35;3.83;;;1.75;;
28844;SDS011;15976;47.938;7.758;2023-03-21T00:37:20;2.35;;;1.50;;
28844;SDS011;15976;47.938;7.758;2023-03-21T00:39:47;2.85;;;1.83;;
28844;SDS011;15976;47.938;7.758;2023-03-21T00:42:15;4.07;;;1.83;;
28844;SDS011;15976;47.938;7.758;2023-03-21T00:44:42;2.85;;;1.90;;
28844;SDS011;15976;47.938;7.758;2023-03-21T00:47:10;3.75;;;1.80;;
28844;SDS011;15976;47.938;7.758;2023-03-21T00:49:38;3.88;;;2.03;;
28844;SDS011;15976;47.938;7.758;2023-03-21T00:52:06;4.40;;;2.10;;
28844;SDS011;15976;47.938;7.758;2023-03-21T00:54:50;5.43;;;3.08;;
28844;SDS011;15976;47.938;7.758;2023-03-21T00:57:17;7.85;;;4.60;;
28844;SDS011;15976;47.938;7.758;2023-03-21T00:59:49;7.45;;;4.68;;
28844;SDS011;15976;47.938;7.758;2023-03-21T01:02:16;8.50;;;3.40;;
28844;SDS011;15976;47.938;7.758;2023-03-21T01:04:48;5.70;;;3.75;;
28844;SDS011;15976;47.938;7.758;2023-03-21T01:07:15;5.00;;;3.50;;
28844;SDS011;15976;47.938;7.758;2023-03-21T01:09:42;4.47;;;3.10;;
28844;SDS011;15976;47.938;7.758;2023-03-21T01:12:10;6.68;;;4.28;;
28844;SDS011;15976;47.938;7.758;2023-03-21T01:14:36;6.88;;;3.97;;
28844;SDS011;15976;47.938;7.758;2023-03-21T01:17:04;6.95;;;4.32;;
28844;SDS011;15976;47.938;7.758;2023-03-21T01:19:31;8.48;;;4.25;;
28844;SDS011;15976;47.938;7.758;2023-03-21T01:22:17;8.38;;;4.30;;
28844;SDS011;15976;47.938;7.758;2023-03-21T01:24:44;5.93;;;4.30;;
28844;SDS011;15976;47.938;7.758;2023-03-21T01:27:23;8.15;;;4.53;;
28844;SDS011;15976;47.938;7.758;2023-03-21T01:29:50;7.60;;;4.30;;
28844;SDS011;15976;47.938;7.758;2023-03-21T01:32:17;6.18;;;4.10;;
28844;SDS011;15976;47.938;7.758;2023-03-21T01:34:44;7.40;;;3.92;;
28844;SDS011;15976;47.938;7.758;2023-03-21T01:37:12;4.72;;;3.65;;
28844;SDS011;15976;47.938;7.758;2023-03-21T01:39:45;6.43;;;3.97;;
28844;SDS011;15976;47.938;7.758;2023-03-21T01:42:13;6.13;;;3.38;;
28844;SDS011;15976;47.938;7.758;2023-03-21T01:47:19;4.47;;;3.22;;
28844;SDS011;15976;47.938;7.758;2023-03-21T01:49:54;5.38;;;3.75;;
28844;SDS011;15976;47.938;7.758;2023-03-21T01:52:36;6.68;;;3.60;;
28844;SDS011;15976;47.938;7.758;2023-03-21T01:55:22;4.05;;;2.95;;
28844;SDS011;15976;47.938;7.758;2023-03-21T01:57:56;4.07;;;2.70;;
28844;SDS011;15976;47.938;7.758;2023-03-21T02:00:54;6.70;;;3.20;;
28844;SDS011;15976;47.938;7.758;2023-03-21T02:03:39;5.65;;;2.88;;
28844;SDS011;15976;47.938;7.758;2023-03-21T02:06:51;6.22;;;3.13;;
28844;SDS011;15976;47.938;7.758;2023-03-21T02:09:36;7.45;;;3.15;;
28844;SDS011;15976;47.938;7.758;2023-03-21T02:12:13;5.85;;;3.05;;
28844;SDS011;15976;47.938;7.758;2023-03-21T02:14:42;5.00;;;3.63;;
28844;SDS011;15976;47.938;7.758;2023-03-21T02:22:42;5.18;;;3.17;;
28844;SDS011;15976;47.938;7.758;2023-03-21T02:28:03;3.95;;;3.05;;
28844;SDS011;15976;47.938;7.758;2023-03-21T02:36:21;3.80;;;2.97;;
28844;SDS011;15976;47.938;7.758;2023-03-21T02:38:58;4.80;;;3.17;;
28844;SDS011;15976;47.938;7.758;2023-03-21T02:41:49;4.05;;;2.92;;
28844;SDS011;15976;47.938;7.758;2023-03-21T02:44:45;5.05;;;2.97;;
28844;SDS011;15976;47.938;7.758;2023-03-21T02:47:26;6.45;;;3.20;;
28844;SDS011;15976;47.938;7.758;2023-03-21T02:52:38;4.70;;;3.55;;
28844;SDS011;15976;47.938;7.758;2023-03-21T02:55:25;2.95;;;2.63;;
28844;SDS011;15976;47.938;7.758;2023-03-21T02:57:58;3.35;;;2.90;;
28844;SDS011;15976;47.938;7.758;2023-03-21T03:00:43;3.97;;;2.85;;
28844;SDS011;15976;47.938;7.758;2023-03-21T03:03:22;5.00;;;3.35;;
28844;SDS011;15976;47.938;7.758;2023-03-21T03:06:02;4.68;;;3.60;;
28844;SDS011;15976;47.938;7.758;2023-03-21T03:11:33;4.63;;;3.45;;
28844;SDS011;15976;47.938;7.758;2023-03-21T03:17:15;5.28;;;3.83;;
28844;SDS011;15976;47.938;7.758;2023-03-21T03:22:47;6.40;;;3.60;;
28844;SDS011;15976;47.938;7.758;2023-03-21T03:25:44;4.68;;;3.53;;
28844;SDS011;15976;47.938;7.758;2023-03-21T03:28:16;6.95;;;4.13;;
28844;SDS011;15976;47.938;7.758;2023-03-21T03:30:50;4.00;;;3.40;;
28844;SDS011;15976;47.938;7.758;2023-03-21T03:33:39;5.78;;;3.75;;
28844;SDS011;15976;47.938;7.758;2023-03-21T03:36:10;5.40;;;3.88;;
28844;SDS011;15976;47.938;7.758;2023-03-21T03:38:57;5.43;;;3.97;;
28844;SDS011;15976;47.938;7.758;2023-03-21T03:44:19;5.20;;;4.00;;
28844;SDS011;15976;47.938;7.758;2023-03-21T03:47:04;5.30;;;4.22;;
28844;SDS011;15976;47.938;7.758;2023-03-21T03:49:40;5.22;;;3.70;;
28844;SDS011;15976;47.938;7.758;2023-03-21T03:52:16;6.93;;;3.63;;
28844;SDS011;15976;47.938;7.758;2023-03-21T03:54:53;4.93;;;3.28;;
28844;SDS011;15976;47.938;7.758;2023-03-21T03:57:22;4.65;;;3.67;;
28844;SDS011;15976;47.938;7.758;2023-03-21T03:59:52;6.85;;;3.75;;
28844;SDS011;15976;47.938;7.758;2023-03-21T04:02:23;10.85;;;5.05;;
28844;SDS011;15976;47.938;7.758;2023-03-21T04:04:52;6.20;;;4.30;;
28844;SDS011;15976;47.938;7.758;2023-03-21T04:07:20;5.82;;;4.47;;
28844;SDS011;15976;47.938;7.758;2023-03-21T04:09:50;6.57;;;3.88;;
28844;SDS011;15976;47.938;7.758;2023-03-21T04:12:19;6.35;;;4.03;;
28844;SDS011;15976;47.938;7.758;2023-03-21T04:15:18;8.05;;;4.07;;
28844;SDS011;15976;47.938;7.758;2023-03-21T04:17:53;7.13;;;4.70;;
28844;SDS011;15976;47.938;7.758;2023-03-21T04:20:21;6.07;;;3.75;;
28844;SDS011;15976;47.938;7.758;2023-03-21T04:23:03;6.90;;;3.83;;
28844;SDS011;15976;47.938;7.758;2023-03-21T04:25:34;7.95;;;4.63;;
28844;SDS011;15976;47.938;7.758;2023-03-21T04:28:13;6.03;;;3.80;;
28844;SDS011;15976;47.938;7.758;2023-03-21T04:30:50;6.65;;;3.88;;
28844;SDS011;15976;47.938;7.758;2023-03-21T04:33:39;5.00;;;3.63;;
28844;SDS011;15976;47.938;7.758;2023-03-21T04:36:06;3.95;;;3.45;;
28844;SDS011;15976;47.938;7.758;2023-03-21T04:38:35;5.38;;;3.47;;
28844;SDS011;15976;47.938;7.758;2023-03-21T04:41:03;4.88;;;3.53;;
28844;SDS011;15976;47.938;7.758;2023-03-21T04:43:30;9.45;;;4.30;;
28844;SDS011;15976;47.938;7.758;2023-03-21T04:45:57;5.75;;;3.88;;
28844;SDS011;15976;47.938;7.758;2023-03-21T04:48:24;6.90;;;4.07;;
28844;SDS011;15976;47.938;7.758;2023-03-21T04:50:51;6.57;;;4.07;;
28844;SDS011;15976;47.938;7.758;2023-03-21T04:53:18;5.70;;;4.43;;
28844;SDS011;15976;47.938;7.758;2023-03-21T04:55:45;9.45;;;4.15;;
28844;SDS011;15976;47.938;7.758;2023-03-21T04:58:16;6.40;;;3.97;;
28844;SDS011;15976;47.938;7.758;2023-03-21T05:00:45;4.88;;;4.22;;
28844;SDS011;15976;47.938;7.758;2023-03-21T05:03:13;8.40;;;4.53;;
28844;SDS011;15976;47.938;7.758;2023-03-21T05:05:46;4.93;;;4.05;;
28844;SDS011;15976;47.938;7.758;2023-03-21T05:08:14;7.05;;;4.53;;
28844;SDS011;15976;47.938;7.758;2023-03-21T05:10:42;6.70;;;4.72;;
28844;SDS011;15976;47.938;7.758;2023-03-21T05:13:10;6.35;;;4.18;;
28844;SDS011;15976;47.938;7.758;2023-03-21T05:15:37;6.55;;;4.00;;
28844;SDS011;15976;47.938;7.758;2023-03-21T05:18:04;5.90;;;4.07;;
28844;SDS011;15976;47.938;7.758;2023-03-21T05:20:43;7.68;;;4.40;;
28844;SDS011;15976;47.938;7.758;2023-03-21T05:23:12;7.32;;;4.05;;
28844;SDS011;15976;47.938;7.758;2023-03-21T05:25:43;4.40;;;3.83;;
28844;SDS011;15976;47.938;7.758;2023-03-21T05:28:19;5.88;;;4.10;;
28844;SDS011;15976;47.938;7.758;2023-03-21T05:30:47;7.07;;;4.40;;
28844;SDS011;15976;47.938;7.758;2023-03-21T05:33:15;7.00;;;4.05;;
28844;SDS011;15976;47.938;7.758;2023-03-21T05:35:41;6.20;;;4.03;;
28844;SDS011;15976;47.938;7.758;2023-03-21T05:38:10;6.25;;;4.30;;
28844;SDS011;15976;47.938;7.758;2023-03-21T05:40:48;7.93;;;4.57;;
28844;SDS011;15976;47.938;7.758;2023-03-21T05:43:16;9.15;;;4.90;;
28844;SDS011;15976;47.938;7.758;2023-03-21T05:45:45;6.78;;;5.07;;
28844;SDS011;15976;47.938;7.758;2023-03-21T05:48:15;9.25;;;5.35;;
28844;SDS011;15976;47.938;7.758;2023-03-21T05:51:08;8.60;;;5.22;;
28844;SDS011;15976;47.938;7.758;2023-03-21T05:53:35;7.97;;;4.40;;
28844;SDS011;15976;47.938;7.758;2023-03-21T05:56:03;6.78;;;4.32;;
28844;SDS011;15976;47.938;7.758;2023-03-21T05:58:39;5.45;;;3.30;;
28844;SDS011;15976;47.938;7.758;2023-03-21T06:01:06;5.97;;;3.90;;
28844;SDS011;15976;47.938;7.758;2023-03-21T06:03:36;5.07;;;3.90;;
28844;SDS011;15976;47.938;7.758;2023-03-21T06:06:06;6.25;;;4.00;;
28844;SDS011;15976;47.938;7.758;2023-03-21T06:08:49;6.05;;;3.95;;
28844;SDS011;15976;47.938;7.758;2023-03-21T06:11:24;5.07;;;3.38;;
28844;SDS011;15976;47.938;7.758;2023-03-21T06:14:20;7.07;;;3.67;;
28844;SDS011;15976;47.938;7.758;2023-03-21T06:17:06;4.68;;;3.75;;
28844;SDS011;15976;47.938;7.758;2023-03-21T06:19:39;10.38;;;4.35;;
28844;SDS011;15976;47.938;7.758;2023-03-21T06:22:13;8.02;;;4.30;;
28844;SDS011;15976;47.938;7.758;2023-03-21T06:24:41;8.32;;;6.47;;
28844;SDS011;15976;47.938;7.758;2023-03-21T06:27:08;15.30;;;7.65;;
28844;SDS011;15976;47.938;7.758;2023-03-21T06:29:56;13.57;;;6.88;;
28844;SDS011;15976;47.938;7.758;2023-03-21T06:32:31;16.45;;;8.77;;
28844;SDS011;15976;47.938;7.758;2023-03-21T06:35:06;11.95;;;6.70;;
28844;SDS011;15976;47.938;7.758;2023-03-21T06:37:34;11.02;;;7.10;;
28844;SDS011;15976;47.938;7.758;2023-03-21T06:40:01;13.80;;;6.72;;
28844;SDS011;15976;47.938;7.758;2023-03-21T06:42:30;10.25;;;5.15;;
28844;SDS011;15976;47.938;7.758;2023-03-21T06:45:04;8.63;;;5.57;;
28844;SDS011;15976;47.938;7.758;2023-03-21T06:47:32;10.88;;;7.13;;
28844;SDS011;15976;47.938;7.758;2023-03-21T06:50:01;12.88;;;6.10;;
28844;SDS011;15976;47.938;7.758;2023-03-21T06:52:31;6.82;;;5.03;;
28844;SDS011;15976;47.938;7.758;2023-03-21T06:54:58;5.95;;;4.30;;
28844;SDS011;15976;47.938;7.758;2023-03-21T06:57:25;5.72;;;4.32;;
28844;SDS011;15976;47.938;7.758;2023-03-21T06:59:53;6.70;;;4.45;;
28844;SDS011;15976;47.938;7.758;2023-03-21T07:02:22;6.35;;;4.50;;
28844;SDS011;15976;47.938;7.758;2023-03-21T07:04:59;8.48;;;4.63;;
28844;SDS011;15976;47.938;7.758;2023-03-21T07:07:28;5.88;;;4.40;;
28844;SDS011;15976;47.938;7.758;2023-03-21T07:09:55;6.82;;;4.00;;
28844;SDS011;15976;47.938;7.758;2023-03-21T07:12:24;8.30;;;5.60;;
28844;SDS011;15976;47.938;7.758;2023-03-21T07:15:14;10.30;;;6.90;;
28844;SDS011;15976;47.938;7.758;2023-03-21T07:17:43;10.75;;;6.45;;
28844;SDS011;15976;47.938;7.758;2023-03-21T07:20:10;13.15;;;8.18;;
28844;SDS011;15976;47.938;7.758;2023-03-21T07:22:38;11.05;;;6.70;;
28844;SDS011;15976;47.938;7.758;2023-03-21T07:25:06;7.28;;;5.25;;
28844;SDS011;15976;47.938;7.758;2023-03-21T07:27:38;9.37;;;5.83;;
28844;SDS011;15976;47.938;7.758;2023-03-21T07:30:07;7.45;;;5.20;;
28844;SDS011;15976;47.938;7.758;2023-03-21T07:32:36;6.95;;;4.22;;
28844;SDS011;15976;47.938;7.758;2023-03-21T07:35:06;6.25;;;4.07;;
28844;SDS011;15976;47.938;7.758;2023-03-21T07:37:39;8.40;;;4.57;;
28844;SDS011;15976;47.938;7.758;2023-03-21T07:40:07;8.07;;;4.32;;
28844;SDS011;15976;47.938;7.758;2023-03-21T07:42:36;6.35;;;4.30;;
28844;SDS011;15976;47.938;7.758;2023-03-21T07:45:04;8.38;;;4.38;;
28844;SDS011;15976;47.938;7.758;2023-03-21T07:47:33;7.18;;;4.60;;
28844;SDS011;15976;47.938;7.758;2023-03-21T07:50:00;8.57;;;4.45;;
28844;SDS011;15976;47.938;7.758;2023-03-21T07:52:30;6.88;;;4.07;;
28844;SDS011;15976;47.938;7.758;2023-03-21T07:54:58;6.75;;;4.07;;
28844;SDS011;15976;47.938;7.758;2023-03-21T07:57:24;8.77;;;4.10;;
28844;SDS011;15976;47.938;7.758;2023-03-21T07:59:51;7.45;;;4.20;;
28844;SDS011;15976;47.938;7.758;2023-03-21T08:02:18;7.07;;;4.60;;
28844;SDS011;15976;47.938;7.758;2023-03-21T08:04:45;6.90;;;4.18;;
28844;SDS011;15976;47.938;7.758;2023-03-21T08:07:13;7.05;;;4.47;;
28844;SDS011;15976;47.938;7.758;2023-03-21T08:09:41;6.93;;;4.40;;
28844;SDS011;15976;47.938;7.758;2023-03-21T08:12:09;8.05;;;4.70;;
28844;SDS011;15976;47.938;7.758;2023-03-21T08:14:36;9.48;;;5.03;;
28844;SDS011;15976;47.938;7.758;2023-03-21T08:17:04;8.02;;;5.22;;
28844;SDS011;15976;47.938;7.758;2023-03-21T08:19:31;8.40;;;5.00;;
28844;SDS011;15976;47.938;7.758;2023-03-21T08:21:58;6.10;;;4.70;;
28844;SDS011;15976;47.938;7.758;2023-03-21T08:24:26;7.07;;;4.20;;
28844;SDS011;15976;47.938;7.758;2023-03-21T08:26:54;8.25;;;4.72;;
28844;SDS011;15976;47.938;7.758;2023-03-21T08:29:21;9.88;;;5.45;;
28844;SDS011;15976;47.938;7.758;2023-03-21T08:31:50;6.97;;;5.07;;
28844;SDS011;15976;47.938;7.758;2023-03-21T08:34:17;6.93;;;4.65;;
28844;SDS011;15976;47.938;7.758;2023-03-21T08:36:44;9.02;;;4.55;;
28844;SDS011;15976;47.938;7.758;2023-03-21T08:39:12;8.88;;;4.57;;
28844;SDS011;15976;47.938;7.758;2023-03-21T08:41:39;5.97;;;3.83;;
28844;SDS011;15976;47.938;7.758;2023-03-21T08:44:06;6.90;;;4.30;;
28844;SDS011;15976;47.938;7.758;2023-03-21T08:46:35;12.80;;;5.05;;
28844;SDS011;15976;47.938;7.758;2023-03-21T08:49:02;6.90;;;4.80;;
28844;SDS011;15976;47.938;7.758;2023-03-21T08:51:29;7.28;;;4.70;;
28844;SDS011;15976;47.938;7.758;2023-03-21T08:53:57;7.05;;;4.70;;
28844;SDS011;15976;47.938;7.758;2023-03-21T08:56:24;9.38;;;4.78;;
28844;SDS011;15976;47.938;7.758;2023-03-21T08:58:51;6.65;;;4.68;;
28844;SDS011;15976;47.938;7.758;2023-03-21T09:01:18;7.63;;;4.75;;
28844;SDS011;15976;47.938;7.758;2023-03-21T09:03:45;6.03;;;5.00;;
28844;SDS011;15976;47.938;7.758;2023-03-21T09:06:12;9.02;;;5.05;;
28844;SDS011;15976;47.938;7.758;2023-03-21T09:08:40;7.82;;;5.43;;
28844;SDS011;15976;47.938;7.758;2023-03-21T09:11:08;7.53;;;5.75;;
28844;SDS011;15976;47.938;7.758;2023-03-21T09:13:35;8.93;;;5.90;;
28844;SDS011;15976;47.938;7.758;2023-03-21T09:16:02;8.25;;;5.63;;
28844;SDS011;15976;47.938;7.758;2023-03-21T09:18:30;7.95;;;5.70;;
28844;SDS011;15976;47.938;7.758;2023-03-21T09:21:15;9.15;;;5.43;;
28844;SDS011;15976;47.938;7.758;2023-03-21T09:23:44;9.35;;;5.97;;
28844;SDS011;15976;47.938;7.758;2023-03-21T09:26:12;8.52;;;5.50;;
28844;SDS011;15976;47.938;7.758;2023-03-21T09:28:39;10.10;;;5.68;;
28844;SDS011;15976;47.938;7.758;2023-03-21T09:31:07;10.70;;;6.13;;
28844;SDS011;15976;47.938;7.758;2023-03-21T09:33:37;8.68;;;5.65;;
28844;SDS011;15976;47.938;7.758;2023-03-21T09:36:08;7.72;;;5.20;;
28844;SDS011;15976;47.938;7.758;2023-03-21T09:38:37;7.90;;;5.47;;
28844;SDS011;15976;47.938;7.758;2023-03-21T09:47:17;6.83;;;5.20;;
28844;SDS011;15976;47.938;7.758;2023-03-21T09:52:44;7.72;;;5.22;;
28844;SDS011;15976;47.938;7.758;2023-03-21T09:55:26;8.20;;;5.20;;
28844;SDS011;15976;47.938;7.758;2023-03-21T10:03:10;6.63;;;4.80;;
28844;SDS011;15976;47.938;7.758;2023-03-21T10:05:52;6.82;;;5.15;;
28844;SDS011;15976;47.938;7.758;2023-03-21T10:08:25;7.75;;;4.88;;
28844;SDS011;15976;47.938;7.758;2023-03-21T10:10:58;7.20;;;4.55;;
28844;SDS011;15976;47.938;7.758;2023-03-21T10:13:31;6.32;;;4.93;;
28844;SDS011;15976;47.938;7.758;2023-03-21T10:16:11;6.28;;;5.05;;
28844;SDS011;15976;47.938;7.758;2023-03-21T10:18:41;5.97;;;4.55;;
28844;SDS011;15976;47.938;7.758;2023-03-21T10:21:27;6.88;;;4.57;;
28844;SDS011;15976;47.938;7.758;2023-03-21T10:24:17;7.55;;;4.80;;
28844;SDS011;15976;47.938;7.758;2023-03-21T10:26:48;5.95;;;4.93;;
28844;SDS011;15976;47.938;7.758;2023-03-21T10:29:16;8.57;;;5.07;;
28844;SDS011;15976;47.938;7.758;2023-03-21T10:31:47;7.78;;;5.10;;
28844;SDS011;15976;47.938;7.758;2023-03-21T10:34:18;8.77;;;5.20;;
28844;SDS011;15976;47.938;7.758;2023-03-21T10:36:46;8.57;;;5.15;;
28844;SDS011;15976;47.938;7.758;2023-03-21T10:42:18;5.38;;;4.60;;
28844;SDS011;15976;47.938;7.758;2023-03-21T10:44:47;6.45;;;4.28;;
28844;SDS011;15976;47.938;7.758;2023-03-21T10:47:23;6.43;;;4.50;;
28844;SDS011;15976;47.938;7.758;2023-03-21T10:49:52;5.70;;;4.72;;
28844;SDS011;15976;47.938;7.758;2023-03-21T10:52:33;5.97;;;4.82;;
28844;SDS011;15976;47.938;7.758;2023-03-21T10:57:44;5.82;;;4.32;;
28844;SDS011;15976;47.938;7.758;2023-03-21T11:00:23;5.90;;;4.30;;
28844;SDS011;15976;47.938;7.758;2023-03-21T11:02:54;3.97;;;3.33;;
28844;SDS011;15976;47.938;7.758;2023-03-21T11:05:24;4.78;;;3.50;;
28844;SDS011;15976;47.938;7.758;2023-03-21T11:07:56;6.78;;;3.30;;
28844;SDS011;15976;47.938;7.758;2023-03-21T11:10:30;6.40;;;3.53;;
28844;SDS011;15976;47.938;7.758;2023-03-21T11:13:17;5.97;;;3.50;;
28844;SDS011;15976;47.938;7.758;2023-03-21T11:15:57;3.92;;;3.50;;
28844;SDS011;15976;47.938;7.758;2023-03-21T11:18:30;6.25;;;3.78;;
28844;SDS011;15976;47.938;7.758;2023-03-21T11:21:04;5.63;;;4.32;;
28844;SDS011;15976;47.938;7.758;2023-03-21T11:23:34;7.03;;;3.97;;
28844;SDS011;15976;47.938;7.758;2023-03-21T11:26:07;5.50;;;3.78;;
28844;SDS011;15976;47.938;7.758;2023-03-21T11:28:38;7.43;;;4.10;;
28844;SDS011;15976;47.938;7.758;2023-03-21T11:31:06;3.97;;;3.58;;
28844;SDS011;15976;47.938;7.758;2023-03-21T11:33:39;6.85;;;3.78;;
28844;SDS011;15976;47.938;7.758;2023-03-21T11:38:57;7.32;;;4.60;;
28844;SDS011;15976;47.938;7.758;2023-03-21T11:41:38;4.15;;;3.60;;
28844;SDS011;15976;47.938;7.758;2023-03-21T11:44:22;6.43;;;3.80;;
28844;SDS011;15976;47.938;7.758;2023-03-21T11:47:07;5.28;;;3.78;;
28844;SDS011;15976;47.938;7.758;2023-03-21T11:49:36;6.60;;;3.50;;
28844;SDS011;15976;47.938;7.758;2023-03-21T11:52:10;12.48;;;3.67;;
28844;SDS011;15976;47.938;7.758;2023-03-21T12:01:02;5.15;;;3.83;;
28844;SDS011;15976;47.938;7.758;2023-03-21T12:03:29;4.82;;;3.30;;
28844;SDS011;15976;47.938;7.758;2023-03-21T12:06:24;4.70;;;4.13;;
28844;SDS011;15976;47.938;7.758;2023-03-21T12:09:26;4.80;;;3.17;;
28844;SDS011;15976;47.938;7.758;2023-03-21T12:20:36;1.10;;;1.00;;
28844;SDS011;15976;47.938;7.758;2023-03-21T12:36:07;1.58;;;0.93;;
28844;SDS011;15976;47.938;7.758;2023-03-21T12:44:31;4.10;;;1.00;;
28844;SDS011;15976;47.938;7.758;2023-03-21T12:47:13;1.05;;;0.82;;
28844;SDS011;15976;47.938;7.758;2023-03-21T12:49:46;1.10;;;1.00;;
28844;SDS011;15976;47.938;7.758;2023-03-21T12:52:38;1.98;;;0.93;;
28844;SDS011;15976;47.938;7.758;2023-03-21T12:55:17;1.10;;;0.80;;
28844;SDS011;15976;47.938;7.758;2023-03-21T13:06:05;1.02;;;0.93;;
28844;SDS011;15976;47.938;7.758;2023-03-21T13:11:07;0.98;;;0.80;;
28844;SDS011;15976;47.938;7.758;2023-03-21T13:13:56;2.83;;;1.08;;
28844;SDS011;15976;47.938;7.758;2023-03-21T13:16:32;1.10;;;1.00;;
28844;SDS011;15976;47.938;7.758;2023-03-21T13:22:26;1.10;;;1.00;;
28844;SDS011;15976;47.938;7.758;2023-03-21T13:25:05;0.98;;;0.80;;
28844;SDS011;15976;47.938;7.758;2023-03-21T13:27:46;1.63;;;1.00;;
28844;SDS011;15976;47.938;7.758;2023-03-21T13:30:36;7.10;;;3.15;;
28844;SDS011;15976;47.938;7.758;2023-03-21T13:33:05;1.58;;;0.98;;
28844;SDS011;15976;47.938;7.758;2023-03-21T13:35:41;2.13;;;1.10;;
28844;SDS011;15976;47.938;7.758;2023-03-21T13:38:12;1.65;;;1.10;;
28844;SDS011;15976;47.938;7.758;2023-03-21T13:40:49;27.25;;;11.00;;
28844;SDS011;15976;47.938;7.758;2023-03-21T13:46:12;1.77;;;1.23;;
28844;SDS011;15976;47.938;7.758;2023-03-21T13:48:42;7.10;;;4.05;;
28844;SDS011;15976;47.938;7.758;2023-03-21T13:54:00;3.28;;;1.50;;
28844;SDS011;15976;47.938;7.758;2023-03-21T13:59:17;1.60;;;1.10;;
28844;SDS011;15976;47.938;7.758;2023-03-21T14:04:29;1.15;;;1.05;;
28844;SDS011;15976;47.938;7.758;2023-03-21T14:07:10;1.02;;;0.90;;
28844;SDS011;15976;47.938;7.758;2023-03-21T14:09:49;1.35;;;1.10;;
28844;SDS011;15976;47.938;7.758;2023-03-21T14:12:20;1.30;;;1.00;;
28844;SDS011;15976;47.938;7.758;2023-03-21T14:14:51;2.92;;;1.08;;
28844;SDS011;15976;47.938;7.758;2023-03-21T14:17:47;1.30;;;1.02;;
28844;SDS011;15976;47.938;7.758;2023-03-21T14:20:32;4.65;;;1.20;;
28844;SDS011;15976;47.938;7.758;2023-03-21T14:23:04;2.15;;;1.27;;
28844;SDS011;15976;47.938;7.758;2023-03-21T14:25:33;1.40;;;1.15;;
28844;SDS011;15976;47.938;7.758;2023-03-21T14:28:23;2.67;;;1.10;;
28844;SDS011;15976;47.938;7.758;2023-03-21T14:30:53;2.58;;;1.20;;
28844;SDS011;15976;47.938;7.758;2023-03-21T14:33:37;1.48;;;1.10;;
28844;SDS011;15976;47.938;7.758;2023-03-21T14:36:13;2.40;;;1.50;;
28844;SDS011;15976;47.938;7.758;2023-03-21T14:38:51;2.15;;;1.40;;
28844;SDS011;15976;47.938;7.758;2023-03-21T14:41:55;2.38;;;1.27;;
28844;SDS011;15976;47.938;7.758;2023-03-21T14:44:36;1.42;;;1.25;;
28844;SDS011;15976;47.938;7.758;2023-03-21T14:47:24;1.55;;;1.30;;
28844;SDS011;15976;47.938;7.758;2023-03-21T14:49:53;3.50;;;1.50;;
28844;SDS011;15976;47.938;7.758;2023-03-21T14:52:26;5.03;;;1.50;;
28844;SDS011;15976;47.938;7.758;2023-03-21T14:55:00;1.98;;;1.52;;
28844;SDS011;15976;47.938;7.758;2023-03-21T14:57:31;1.50;;;1.40;;
28844;SDS011;15976;47.938;7.758;2023-03-21T14:59:59;4.38;;;1.50;;
28844;SDS011;15976;47.938;7.758;2023-03-21T15:02:37;3.03;;;1.52;;
28844;SDS011;15976;47.938;7.758;2023-03-21T15:07:56;2.25;;;1.45;;
28844;SDS011;15976;47.938;7.758;2023-03-21T15:10:29;3.38;;;1.52;;
28844;SDS011;15976;47.938;7.758;2023-03-21T15:12:58;1.60;;;1.35;;
28844;SDS011;15976;47.938;7.758;2023-03-21T15:15:28;3.85;;;1.70;;
28844;SDS011;15976;47.938;7.758;2023-03-21T15:17:57;1.33;;;1.15;;
28844;SDS011;15976;47.938;7.758;2023-03-21T15:20:29;3.60;;;1.30;;
28844;SDS011;15976;47.938;7.758;2023-03-21T15:23:03;6.80;;;1.13;;
28844;SDS011;15976;47.938;7.758;2023-03-21T15:25:35;1.73;;;1.20;;
28844;SDS011;15976;47.938;7.758;2023-03-21T15:28:03;4.57;;;1.42;;
28844;SDS011;15976;47.938;7.758;2023-03-21T15:30:32;2.95;;;1.40;;
28844;SDS011;15976;47.938;7.758;2023-03-21T15:33:07;1.58;;;1.08;;
28844;SDS011;15976;47.938;7.758;2023-03-21T15:35:39;1.65;;;1.27;;
28844;SDS011;15976;47.938;7.758;2023-03-21T15:38:27;3.75;;;1.15;;
28844;SDS011;15976;47.938;7.758;2023-03-21T15:41:16;1.95;;;1.27;;
28844;SDS011;15976;47.938;7.758;2023-03-21T15:43:53;2.03;;;1.35;;
28844;SDS011;15976;47.938;7.758;2023-03-21T15:46:33;2.42;;;1.05;;
28844;SDS011;15976;47.938;7.758;2023-03-21T15:54:16;3.67;;;1.52;;
28844;SDS011;15976;47.938;7.758;2023-03-21T15:57:04;2.95;;;1.33;;
28844;SDS011;15976;47.938;7.758;2023-03-21T15:59:53;1.38;;;1.10;;
28844;SDS011;15976;47.938;7.758;2023-03-21T16:02:24;2.10;;;1.20;;
28844;SDS011;15976;47.938;7.758;2023-03-21T16:05:00;2.20;;;1.35;;
28844;SDS011;15976;47.938;7.758;2023-03-21T16:07:43;2.63;;;1.50;;
28844;SDS011;15976;47.938;7.758;2023-03-21T16:13:03;2.35;;;1.20;;
28844;SDS011;15976;47.938;7.758;2023-03-21T16:15:31;1.58;;;1.15;;
28844;SDS011;15976;47.938;7.758;2023-03-21T16:17:59;3.47;;;1.13;;
28844;SDS011;15976;47.938;7.758;2023-03-21T16:20:33;1.50;;;1.23;;
28844;SDS011;15976;47.938;7.758;2023-03-21T16:23:05;1.67;;;1.20;;
28844;SDS011;15976;47.938;7.758;2023-03-21T16:25:34;2.53;;;1.25;;
28844;SDS011;15976;47.938;7.758;2023-03-21T16:28:01;1.58;;;1.23;;
28844;SDS011;15976;47.938;7.758;2023-03-21T16:30:28;2.40;;;1.70;;
28844;SDS011;15976;47.938;7.758;2023-03-21T16:32:55;1.90;;;1.30;;
28844;SDS011;15976;47.938;7.758;2023-03-21T16:35:22;1.40;;;1.30;;
28844;SDS011;15976;47.938;7.758;2023-03-21T16:37:51;1.65;;;1.20;;
28844;SDS011;15976;47.938;7.758;2023-03-21T16:43:09;2.30;;;1.20;;
28844;SDS011;15976;47.938;7.758;2023-03-21T16:45:36;2.47;;;1.52;;
28844;SDS011;15976;47.938;7.758;2023-03-21T16:48:03;3.63;;;2.67;;
28844;SDS011;15976;47.938;7.758;2023-03-21T16:50:32;4.10;;;1.65;;
28844;SDS011;15976;47.938;7.758;2023-03-21T16:53:01;2.03;;;1.80;;
28844;SDS011;15976;47.938;7.758;2023-03-21T16:55:29;3.03;;;2.38;;
28844;SDS011;15976;47.938;7.758;2023-03-21T16:57:58;2.92;;;2.00;;
28844;SDS011;15976;47.938;7.758;2023-03-21T17:00:27;2.35;;;1.40;;
28844;SDS011;15976;47.938;7.758;2023-03-21T17:02:58;2.15;;;1.92;;
28844;SDS011;15976;47.938;7.758;2023-03-21T17:05:29;3.17;;;2.10;;
28844;SDS011;15976;47.938;7.758;2023-03-21T17:07:56;2.95;;;2.03;;
28844;SDS011;15976;47.938;7.758;2023-03-21T17:10:28;5.32;;;2.20;;
28844;SDS011;15976;47.938;7.758;2023-03-21T17:12:56;3.10;;;1.83;;
28844;SDS011;15976;47.938;7.758;2023-03-21T17:15:23;4.07;;;2.47;;
28844;SDS011;15976;47.938;7.758;2023-03-21T17:17:54;3.95;;;2.50;;
28844;SDS011;15976;47.938;7.758;2023-03-21T17:20:29;3.13;;;2.15;;
28844;SDS011;15976;47.938;7.758;2023-03-21T17:22:59;2.97;;;1.98;;
28844;SDS011;15976;47.938;7.758;2023-03-21T17:25:30;2.47;;;1.77;;
28844;SDS011;15976;47.938;7.758;2023-03-21T17:27:57;2.25;;;1.67;;
28844;SDS011;15976;47.938;7.758;2023-03-21T17:30:26;2.88;;;1.70;;